Map

Track Data

SID SEASON NUMBER BASIN SUBBASIN NAME ISO_TIME NATURE LAT LON WMO_WIND WMO_PRES WMO_AGENCY TRACK_TYPE DIST2LAND LANDFALL IFLAG USA_AGENCY USA_ATCF_ID USA_LAT USA_LON USA_RECORD USA_STATUS USA_WIND USA_PRES USA_SSHS USA_R34_NE USA_R34_SE USA_R34_SW USA_R34_NW USA_R50_NE USA_R50_SE USA_R50_SW USA_R50_NW USA_R64_NE USA_R64_SE USA_R64_SW USA_R64_NW USA_POCI USA_ROCI USA_RMW USA_EYE TOKYO_LAT TOKYO_LON TOKYO_GRADE TOKYO_WIND TOKYO_PRES TOKYO_R50_DIR TOKYO_R50_LONG TOKYO_R50_SHORT TOKYO_R30_DIR TOKYO_R30_LONG TOKYO_R30_SHORT TOKYO_LAND CMA_LAT CMA_LON CMA_CAT CMA_WIND CMA_PRES HKO_LAT HKO_LON HKO_CAT HKO_WIND HKO_PRES NEWDELHI_LAT NEWDELHI_LON NEWDELHI_GRADE NEWDELHI_WIND NEWDELHI_PRES NEWDELHI_CI NEWDELHI_DP NEWDELHI_POCI REUNION_LAT REUNION_LON REUNION_TYPE REUNION_WIND REUNION_PRES REUNION_TNUM REUNION_CI REUNION_RMW REUNION_R34_NE REUNION_R34_SE REUNION_R34_SW REUNION_R34_NW REUNION_R50_NE REUNION_R50_SE REUNION_R50_SW REUNION_R50_NW REUNION_R64_NE REUNION_R64_SE REUNION_R64_SW REUNION_R64_NW BOM_LAT BOM_LON BOM_TYPE BOM_WIND BOM_PRES BOM_TNUM BOM_CI BOM_RMW BOM_R34_NE BOM_R34_SE BOM_R34_SW BOM_R34_NW BOM_R50_NE BOM_R50_SE BOM_R50_SW BOM_R50_NW BOM_R64_NE BOM_R64_SE BOM_R64_SW BOM_R64_NW BOM_ROCI BOM_POCI BOM_EYE BOM_POS_METHOD BOM_PRES_METHOD NADI_LAT NADI_LON NADI_CAT NADI_WIND NADI_PRES WELLINGTON_LAT WELLINGTON_LON WELLINGTON_WIND WELLINGTON_PRES DS824_LAT DS824_LON DS824_STAGE DS824_WIND DS824_PRES TD9636_LAT TD9636_LON TD9636_STAGE TD9636_WIND TD9636_PRES TD9635_LAT TD9635_LON TD9635_WIND TD9635_PRES TD9635_ROCI NEUMANN_LAT NEUMANN_LON NEUMANN_CLASS NEUMANN_WIND NEUMANN_PRES MLC_LAT MLC_LON MLC_CLASS MLC_WIND MLC_PRES USA_GUST BOM_GUST BOM_GUST_PER REUNION_GUST REUNION_GUST_PER USA_SEAHGT USA_SEARAD_NE USA_SEARAD_SE USA_SEARAD_SW USA_SEARAD_NW STORM_SPEED STORM_DIR
1976308N13088 1976 132 NI BB NOT_NAMED 1976-11-03 00:00:00 TS 12.8000 87.5000 main 702 608 O________OO___ jtwc_io IO101976 12.8000 87.5000 -1 12.8000 87.5000 TC 25 12.8000 87.5000 1 18 309
1976308N13088 1976 132 NI BB NOT_NAMED 1976-11-03 03:00:00 TS 13.3607 86.7872 main 601 514 P________PP___ IO101976 13.3829 86.7808 -1 13.3829 86.7808 TC 25 13.3161 86.8002 1 17 308
1976308N13088 1976 132 NI BB NOT_NAMED 1976-11-03 06:00:00 TS 13.8683 86.1096 main 507 428 O________OP___ jtwc_io IO101976 13.9000 86.1000 -1 13.9000 86.1000 TC 25 13.8050 86.1287 1 16 306
1976308N13088 1976 132 NI BB NOT_NAMED 1976-11-03 09:00:00 TS 14.2820 85.5041 main 428 365 P________PP___ IO101976 14.3024 85.4973 -1 14.3024 85.4973 TC 25 14.2413 85.5178 1 13 304
1976308N13088 1976 132 NI BB NOT_NAMED 1976-11-03 12:00:00 TS 14.6000 85.0000 main 365 318 O________OO___ jtwc_io IO101976 14.6000 85.0000 -1 14.6000 85.0000 TC 25 14.6000 85.0000 1 10 303
1976308N13088 1976 132 NI BB NOT_NAMED 1976-11-03 15:00:00 TS 14.8370 84.6111 main 318 279 P________PP___ IO101976 14.8223 84.6197 -1 14.8223 84.6197 TC 25 14.8665 84.5937 1 8 301
1976308N13088 1976 132 NI BB NOT_NAMED 1976-11-03 18:00:00 TS 15.0219 84.2868 main 279 240 O________OP___ jtwc_io IO101976 15.0000 84.3000 -1 15.0000 84.3000 TC 25 15.0658 84.2605 1 7 300
1976308N13088 1976 132 NI BB NOT_NAMED 1976-11-03 21:00:00 TS 15.2056 83.9639 main 240 193 P________PP___ IO101976 15.1923 83.9723 -1 15.1923 83.9723 TC 25 15.2323 83.9471 1 8 300
1976308N13088 1976 132 NI BB NOT_NAMED 1976-11-04 00:00:00 TS 15.4000 83.6000 main 193 147 O________OO___ jtwc_io IO101976 15.4000 83.6000 -1 15.4000 83.6000 TC 25 15.4000 83.6000 1 9 299
1976308N13088 1976 132 NI BB NOT_NAMED 1976-11-04 03:00:00 TS 15.6460 83.1335 main 140 89 P________PP___ IO101976 15.6500 83.1226 -1 15.6500 83.1226 TC 30 15.6380 83.1555 1 11 298
1976308N13088 1976 132 NI BB NOT_NAMED 1976-11-04 06:00:00 TS 15.8933 82.6226 main 84 39 O________OP___ jtwc_io IO101976 15.9000 82.6000 -1 15.9000 82.6000 TC 35 15.8798 82.6678 1 11 296
1976308N13088 1976 132 NI BB NOT_NAMED 1976-11-04 09:00:00 TS 16.1171 82.1204 main 39 0 P________PP___ IO101976 16.1223 82.1074 -1 16.1223 82.1074 TC 50 16.1066 82.1462 1 11 292
1976308N13088 1976 132 NI BB NOT_NAMED 1976-11-04 12:00:00 TS 16.3000 81.6000 main 10 0 O________OO___ jtwc_io IO101976 16.3000 81.6000 -1 16.3000 81.6000 TC 65 16.3000 81.6000 4 11 286
1976308N13088 1976 132 NI BB NOT_NAMED 1976-11-04 15:00:00 TS 16.4125 81.0476 main 0 0 P________PP___ IO101976 16.4149 81.0648 -1 16.4149 81.0648 TC 65 16.4079 81.0132 4 11 280
1976308N13088 1976 132 NI BB NOT_NAMED 1976-11-04 18:00:00 TS 16.4952 80.4704 main 0 0 O________OP___ jtwc_io IO101976 16.5000 80.5000 -1 16.5000 80.5000 TC 65 16.4856 80.4112 4 12 278
1976308N13088 1976 132 NI BB NOT_NAMED 1976-11-04 21:00:00 TS 16.5753 79.8512 main 0 0 P________PP___ IO101976 16.5777 79.8624 -1 16.5777 79.8624 TC 65 16.5704 79.8288 4 11 280
1976308N13088 1976 132 NI BB NOT_NAMED 1976-11-05 00:00:00 TS 16.7000 79.3000 main 0 0 O________OO___ jtwc_io IO101976 16.7000 79.3000 -1 16.7000 79.3000 TC 65 16.7000 79.3000 4 9 292
1976308N13088 1976 132 NI BB NOT_NAMED 1976-11-05 03:00:00 TS 16.9219 78.9661 main 0 0 P________PP___ IO101976 16.9196 78.9773 -1 16.9196 78.9773 TC 50 16.9266 78.9438 4 8 310
1976308N13088 1976 132 NI BB NOT_NAMED 1976-11-05 06:00:00 TS 17.2006 78.6770 main 0 0 O________OP___ jtwc_io IO101976 17.2000 78.7000 -1 17.2000 78.7000 TC 35 17.2017 78.6310 4 9 313
1976308N13088 1976 132 NI BB NOT_NAMED 1976-11-05 09:00:00 TS 17.5000 78.3141 main 0 0 P________PP___ IO101976 17.4995 78.3323 -1 17.4995 78.3323 TC 35 17.5011 78.2778 4 10 306
1976308N13088 1976 132 NI AS NOT_NAMED 1976-11-05 12:00:00 TS 17.8000 77.8000 main 0 0 O________OO___ jtwc_io IO101976 17.8000 77.8000 -1 17.8000 77.8000 TC 35 17.8000 77.8000 2 13 295
1976308N13088 1976 132 NI AS NOT_NAMED 1976-11-05 15:00:00 TS 18.0607 77.0355 main 0 0 P________PP___ IO101976 18.0578 77.0099 -1 18.0578 77.0099 TC 30 18.0665 77.0868 2 17 288
1976308N13088 1976 132 NI AS NOT_NAMED 1976-11-05 18:00:00 TS 18.3080 76.1476 main 0 0 O________OP___ jtwc_io IO101976 18.3000 76.1000 -1 18.3000 76.1000 TC 25 18.3240 76.2427 2 17 287
1976308N13088 1976 132 NI AS NOT_NAMED 1976-11-05 21:00:00 TS 18.5612 75.2756 main 0 0 P________PP___ IO101976 18.5571 75.2499 -1 18.5571 75.2499 TC 25 18.5693 75.3272 2 17 287
1976308N13088 1976 132 NI AS NOT_NAMED 1976-11-06 00:00:00 TS 18.8000 74.4000 main 0 0 O________OO___ jtwc_io IO101976 18.8000 74.4000 -1 18.8000 74.4000 TC 25 18.8000 74.4000 1 17 285
1976308N13088 1976 132 NI AS NOT_NAMED 1976-11-06 03:00:00 TS 19.0153 73.5188 main 0 0 P________PP___ IO101976 19.0071 73.5497 -1 19.0071 73.5497 TC 25 19.0318 73.4572 1 17 284
1976308N13088 1976 132 NI AS NOT_NAMED 1976-11-06 06:00:00 TS 19.2157 72.6428 main 21 21 O________OP___ jtwc_io IO101976 19.2000 72.7000 -1 19.2000 72.7000 TC 25 19.2470 72.5284 1 17 284
1976308N13088 1976 132 NI AS NOT_NAMED 1976-11-06 09:00:00 TS 19.4179 71.7602 main 95 95 P________PP___ IO101976 19.4077 71.7976 -1 19.4077 71.7976 TC 25 19.4384 71.6853 1 16 284
1976308N13088 1976 132 NI AS NOT_NAMED 1976-11-06 12:00:00 TS 19.6000 71.0000 main 124 105 O________OO___ jtwc_io IO101976 19.6000 71.0000 -1 19.6000 71.0000 TC 25 19.6000 71.0000 1 13 285
1976308N13088 1976 132 NI AS NOT_NAMED 1976-11-06 15:00:00 TS 19.7578 70.4277 main 108 108 P________PP___ IO101976 19.7722 70.3799 -1 19.7722 70.3799 TC 25 19.7291 70.5232 1 9 288
1976308N13088 1976 132 NI AS NOT_NAMED 1976-11-06 18:00:00 TS 19.8777 70.0731 main 115 115 O________OP___ jtwc_io IO101976 19.9000 70.0000 -1 19.9000 70.0000 TC 25 19.8330 70.2193 1 5 292
1976308N13088 1976 132 NI AS NOT_NAMED 1976-11-06 21:00:00 TS 19.9519 69.9286 main 118 118 P________PP___ IO101976 19.9676 69.8775 -1 19.9676 69.8775 TC 25 19.9206 70.0308 1 2 307
1976308N13088 1976 132 NI AS NOT_NAMED 1976-11-07 00:00:00 TS 20.0000 69.9000 main 118 O________OO___ jtwc_io IO101976 20.0000 69.9000 -1 20.0000 69.9000 TC 25 20.0000 69.9000 6 1 0

About IBTrACS Database

This database is a web-friendly format of International Best Track Archive for Climate Stewardship (IBTrACS), a global best track data archive curated by NOAA dating back to 1842.

Updated: 2021-10-19